Home > Products > Valid Products > TAF

000
FTUS46 KSGX 301100
TAFPSP
TAF
KPSP 301120Z 3012/0112 VRB05KT P6SM SKC
     FM301800 10007KT P6SM SKC
     FM010100 33007KT P6SM SKC=



000
FTUS46 KSGX 301100
TAFTRM
TAF
KTRM 301120Z 3012/0112 VRB05KT P6SM SKC
     FM301800 14008KT P6SM SKC
     FM010300 33006KT P6SM SKC=



000
FTUS46 KSGX 301100
TAFONT
TAF
KONT 301120Z 3012/0118 VRB04KT P6SM SKC
     FM302000 25011KT P6SM SKC
     FM010400 VRB05KT P6SM SKC=



000
FTUS46 KSGX 301100
TAFCRQ
TAF
KCRQ 301120Z 3012/0112 VRB03KT P6SM SCT012
     FM301900 24008KT P6SM SKC
     FM010200 VRB04KT P6SM SCT008
     FM010500 VRB03KT P6SM OVC007=



000
FTUS46 KSGX 301100
TAFSNA
TAF
KSNA 301120Z 3012/0112 VRB04KT P6SM FEW012
     FM302000 22008KT P6SM SKC
     FM010300 VRB04KT P6SM SCT010
     FM010900 VRB03KT P6SM OVC009=



000
FTUS46 KSGX 301100
TAFSAN
TAF
KSAN 301120Z 3012/0118 VRB03KT P6SM SCT015
     FM301900 27009KT P6SM SKC
     FM010200 VRB04KT P6SM SCT010
     FM010500 VRB03KT P6SM OVC010
     FM011700 VRB04KT P6SM SCT012=



000
FTUS46 KSGX 300900 AAA
TAFCRQ
TAF AMD
KCRQ 300930Z 3010/0106 VRB03KT P6SM SCT012
     FM301900 24007KT P6SM FEW012
     FM010300 VRB03KT P6SM BKN009=



000
FTUS46 KSGX 300900 AAA
TAFSNA
TAF AMD
KSNA 300930Z 3010/0106 VRB04KT P6SM FEW015
     FM302000 22008KT P6SM SKC
     FM010200 VRB04KT P6SM SCT012=



000
FTUS46 KSGX 300900 AAA
TAFSAN
TAF AMD
KSAN 300906Z 3009/0112 VRB05KT P6SM SCT015
     FM301900 27008KT P6SM SKC
     FM010200 VRB04KT P6SM SCT012
     FM010500 VRB03KT P6SM BKN011=



000
FTUS46 KSGX 300500
TAFONT
TAF
KONT 300520Z 3006/0112 VRB04KT P6SM SKC
     FM302000 25011KT P6SM SKC
     FM010400 VRB05KT P6SM SKC=



000
FTUS46 KSGX 300500
TAFCRQ
TAF
KCRQ 300520Z 3006/0106 VRB04KT P6SM FEW012
     FM301200 VRB03KT P6SM BKN010
     FM301600 VRB03KT P6SM SCT012
     FM301900 24007KT P6SM FEW012
     FM010300 VRB03KT P6SM BKN009=



000
FTUS46 KSGX 300500
TAFPSP
TAF
KPSP 300520Z 3006/0106 VRB06KT P6SM SKC
     FM010200 33009KT P6SM SKC=



000
FTUS46 KSGX 300500
TAFSNA
TAF
KSNA 300520Z 3006/0106 VRB04KT P6SM FEW018
     FM301200 VRB03KT P6SM BKN015
     FM301600 VRB05KT P6SM FEW017
     FM302000 22008KT P6SM SKC
     FM010200 VRB04KT P6SM SCT012=



000
FTUS46 KSGX 300500
TAFTRM
TAF
KTRM 300520Z 3006/0106 VRB06KT P6SM SKC=



000
FTUS46 KSGX 300500
TAFSAN
TAF
KSAN 300520Z 3006/0112 VRB05KT P6SM SCT016
     FM301100 VRB03KT P6SM BKN014
     FM301600 VRB03KT P6SM SCT015
     FM301900 27008KT P6SM FEW015
     FM010200 VRB04KT P6SM SCT012
     FM010500 VRB03KT P6SM BKN011=



000
FTUS46 KSGX 300300 AAA
TAFSAN
TAF AMD
KSAN 300309Z 3003/0106 VRB05KT P6SM FEW017
     FM301100 VRB03KT P6SM BKN012
     FM301600 VRB03KT P6SM SCT015
     FM301900 27008KT P6SM FEW015
     FM010200 VRB04KT P6SM SCT010=



000
FTUS46 KSGX 292300
TAFSNA
TAF
KSNA 292323Z 3000/3024 22007KT P6SM FEW050
     FM300200 VRB04KT P6SM FEW015
     FM301200 VRB03KT P6SM BKN012
     FM301600 VRB05KT P6SM FEW015
     FM302000 22008KT P6SM SKC=



000
FTUS46 KSGX 292300
TAFCRQ
TAF
KCRQ 292323Z 3000/3024 27008KT P6SM SKC
     FM300200 VRB04KT P6SM FEW012
     FM301000 VRB03KT P6SM BKN010
     FM301600 VRB03KT P6SM SCT012
     FM301900 24007KT P6SM FEW012=



000
FTUS46 KSGX 292300
TAFSAN
TAF
KSAN 292323Z 3000/0106 31011KT P6SM FEW015
     FM300200 VRB05KT P6SM SCT015
     FM300900 VRB03KT P6SM BKN012
     FM301600 VRB03KT P6SM SCT015
     FM301900 27008KT P6SM FEW015
     FM010200 VRB04KT P6SM SCT010=



000
FTUS46 KSGX 292300
TAFPSP
TAF
KPSP 292323Z 3000/3024 VRB06KT P6SM SKC
     FM302300 33009KT P6SM SKC=



000
FTUS46 KSGX 292300
TAFONT
TAF
KONT 292323Z 3000/0106 25008KT P6SM SKC
     FM300400 VRB04KT P6SM SKC
     FM302000 25011KT P6SM SKC
     FM010400 VRB05KT P6SM SKC=



000
FTUS46 KSGX 292300
TAFTRM
TAF
KTRM 292323Z 3000/3024 VRB06KT P6SM SKC=



000
FTUS46 KSGX 292000 AAA
TAFSAN
TAF AMD
KSAN 292040Z 2921/3024 29010KT P6SM SKC
     FM300200 VRB04KT P6SM SCT018
     FM301000 VRB03KT P6SM BKN015
     FM301530 VRB03KT P6SM SCT015
     FM302000 25008KT P6SM FEW018=



000
FTUS46 KSGX 291700
TAFONT
TAF
KONT 291726Z 2918/3024 23005KT P6SM SCT025
     FM292000 25011KT P6SM SKC
     FM300300 VRB04KT P6SM SKC
     FM302000 25011KT P6SM SKC=



000
FTUS46 KSGX 291700
TAFTRM
TAF
KTRM 291726Z 2918/3018 VRB06KT P6SM SKC=



000
FTUS46 KSGX 291700
TAFSAN
TAF
KSAN 291726Z 2918/3024 VRB04KT P6SM SCT025
     FM291900 29010KT P6SM SKC
     FM300200 VRB04KT P6SM SCT018
     FM301000 VRB03KT P6SM BKN015
     FM301530 VRB03KT P6SM SCT015
     FM302000 25008KT P6SM FEW018=



000
FTUS46 KSGX 291700
TAFPSP
TAF
KPSP 291726Z 2918/3018 VRB06KT P6SM SKC
     FM292300 33009KT P6SM SKC
     FM300500 VRB05KT P6SM SKC=



000
FTUS46 KSGX 291700
TAFSNA
TAF
KSNA 291726Z 2918/3018 VRB04KT P6SM SCT025
     FM291900 22010KT P6SM SKC
     FM300300 VRB04KT P6SM SCT018
     FM301100 VRB05KT P6SM BKN015
     FM301530 VRB05KT P6SM FEW018=



000
FTUS46 KSGX 291700
TAFCRQ
TAF
KCRQ 291726Z 2918/3018 VRB04KT P6SM SCT025
     FM291900 26008KT P6SM SKC
     FM300200 VRB04KT P6SM SCT015
     FM300900 VRB03KT P6SM BKN012
     FM301500 VRB05KT P6SM FEW015=



000
FTUS46 KSGX 291400 AAA
TAFSAN
TAF AMD
KSAN 291439Z 2915/3018 VRB04KT P6SM SCT025
     FM291900 29010KT P6SM SKC
     FM300200 VRB04KT P6SM SCT018
     FM300700 VRB03KT P6SM BKN015
     FM301600 VRB03KT P6SM SCT015=



000
FTUS46 KSGX 291100
TAFSNA
TAF
KSNA 291120Z 2912/3012 VRB04KT P6SM SCT025
     FM291900 22010KT P6SM SKC
     FM300300 VRB04KT P6SM SCT018=



000
FTUS46 KSGX 291100
TAFSAN
TAF
KSAN 291120Z 2912/3018 VRB04KT P6SM SCT025
     FM291900 29010KT P6SM SKC
     FM300200 VRB04KT P6SM SCT018
     FM300700 VRB03KT P6SM BKN015
     FM301600 VRB03KT P6SM SCT015=



000
FTUS46 KSGX 291100
TAFCRQ
TAF
KCRQ 291120Z 2912/3012 VRB04KT P6SM SCT025
     FM291900 26008KT P6SM SKC
     FM300200 VRB04KT P6SM SCT018
     FM300800 VRB03KT P6SM BKN015=



000
FTUS46 KSGX 291100
TAFPSP
TAF
KPSP 291120Z 2912/3012 VRB06KT P6SM SKC
     FM292300 33009KT P6SM SKC
     FM300600 VRB05KT P6SM SKC=



000
FTUS46 KSGX 291100
TAFTRM
TAF
KTRM 291120Z 2912/3012 33009KT P6SM SKC
     FM291800 14008KT P6SM SKC
     FM300200 33007KT P6SM SKC=



000
FTUS46 KSGX 291100
TAFONT
TAF
KONT 291120Z 2912/3018 23005KT P6SM SCT025
     FM292000 25011KT P6SM SKC
     FM300300 VRB04KT P6SM SKC=



000
FTUS46 KSGX 291000 AAB
TAFONT
TAF AMD
KONT 291016Z 2910/3012 VRB05KT P6SM SCT030
     FM292000 25011KT P6SM SCT025
     FM300300 VRB04KT P6SM SKC=



000
FTUS46 KSGX 290800 AAA
TAFONT
TAF AMD
KONT 290804Z 2908/3012 VRB04KT P6SM BKN030
     FM291600 VRB06KT P6SM SCT030
     FM292000 25011KT P6SM SCT025
     FM300300 VRB04KT P6SM SKC=



000
FTUS46 KSGX 290800 AAA
TAFSNA
TAF AMD
KSNA 290803Z 2908/3006 VRB03KT P6SM SCT025
      TEMPO 2911/2915 BKN025
     FM291900 22010KT P6SM SKC
     FM300200 VRB04KT P6SM FEW020=



000
FTUS46 KSGX 290800 AAA
TAFCRQ
TAF AMD
KCRQ 290802Z 2908/3006 VRB03KT P6SM SCT030
      TEMPO 2911/2915 BKN025
     FM291900 27009KT P6SM SKC
     FM300200 VRB04KT P6SM SCT015=



000
FTUS46 KSGX 290800 AAA
TAFSAN
TAF AMD
KSAN 290801Z 2908/3012 VRB04KT P6SM SCT025
      TEMPO 2911/2915 BKN025
     FM291900 29010KT P6SM SKC
     FM300200 VRB04KT P6SM SCT018
     FM300600 VRB03KT P6SM BKN015=



000
FTUS46 KSGX 290500
TAFTRM
TAF
KTRM 290520Z 2906/3006 33010KT P6SM SKC
     FM291700 VRB06KT P6SM SKC=



000
FTUS46 KSGX 290500
TAFPSP
TAF
KPSP 290520Z 2906/3006 33010KT P6SM SKC
     FM291100 VRB06KT P6SM SKC
     FM292100 33009KT P6SM SKC
     FM300400 VRB06KT P6SM SKC=



000
FTUS46 KSGX 290500
TAFSNA
TAF
KSNA 290520Z 2906/3006 VRB03KT P6SM BKN030
     FM291600 VRB05KT P6SM SCT030
     FM291930 25011KT P6SM FEW030
     FM300200 VRB04KT P6SM FEW020=



000
FTUS46 KSGX 290500
TAFCRQ
TAF
KCRQ 290520Z 2906/3006 VRB03KT P6SM BKN030
     FM291600 VRB05KT P6SM SCT030
     FM291930 28009KT P6SM FEW030
     FM300200 VRB04KT P6SM FEW018=



000
FTUS46 KSGX 290500
TAFSAN
TAF
KSAN 290520Z 2906/3012 VRB03KT P6SM SCT030
     FM290700 VRB03KT P6SM BKN030
     FM291600 VRB05KT P6SM SCT030
     FM291930 29010KT P6SM FEW030
     FM300200 VRB04KT P6SM FEW020
     FM300600 VRB03KT P6SM BKN016=



000
FTUS46 KSGX 290500
TAFONT
TAF
KONT 290520Z 2906/3012 VRB05KT P6SM SCT025
     FM290700 VRB04KT P6SM BKN020
     FM291600 VRB06KT P6SM SCT025
     FM292000 24011KT P6SM FEW025
     FM300300 VRB04KT P6SM FEW017=



000
FTUS46 KSGX 290200 AAB
TAFSAN
TAF AMD
KSAN 290230Z 2903/3006 VRB05KT P6SM BKN030
     FM291000 VRB04KT P6SM SCT030
     FM291900 29010KT P6SM SCT030
     FM300200 27004KT P6SM SCT020=



000
FTUS46 KSGX 290100 AAA
TAFSNA
TAF AMD
KSNA 290114Z 2901/2924 25008KT P6SM SCT025
     FM290200 VRB04KT P6SM BKN025
     FM291000 VRB04KT P6SM SCT030
     FM291930 22011KT P6SM SCT027=



000
FTUS46 KSGX 290000 AAA
TAFCRQ
TAF AMD
KCRQ 290037Z 2901/2924 26009KT P6SM BKN020
     FM290200 VRB05KT P6SM BKN025
     FM291000 VRB04KT P6SM SCT025
     FM291930 28009KT P6SM SCT025=



000
FTUS46 KSGX 290000 AAA
TAFSAN
TAF AMD
KSAN 290031Z 2901/3006 25009KT P6SM BKN025
     FM290200 VRB05KT P6SM BKN030
     FM291000 VRB04KT P6SM SCT030
     FM291900 29010KT P6SM SCT030
     FM300200 27004KT P6SM SCT020=



000
FTUS46 KSGX 282300
TAFSNA
TAF
KSNA 282320Z 2900/2924 21011KT P6SM FEW050
     FM290200 VRB04KT P6SM SCT025
     FM291100 VRB03KT P6SM BKN025
     FM291700 VRB04KT P6SM SCT027
     FM292000 22011KT P6SM SCT027=



000
FTUS46 KSGX 282300
TAFCRQ
TAF
KCRQ 282320Z 2900/2924 22010KT P6SM BKN022
     FM290200 VRB04KT P6SM SCT025
     FM290900 VRB03KT P6SM BKN022
     FM291600 VRB04KT P6SM SCT025
     FM292000 28009KT P6SM SCT025=



000
FTUS46 KSGX 282300
TAFTRM
TAF
KTRM 282320Z 2900/2924 VRB05KT P6SM SKC
     FM290200 33011G21KT P6SM SKC
     FM291100 33007KT P6SM SKC
     FM291900 14006KT P6SM SKC=



000
FTUS46 KSGX 282300
TAFONT
TAF
KONT 282320Z 2900/3006 26012KT P6SM SCT060
     FM290400 VRB05KT P6SM SCT030
     FM290800 VRB04KT P6SM BKN020
     FM291500 VRB04KT P6SM SCT025
     FM292000 24011KT P6SM SCT030
     FM300400 24004KT P6SM SCT025=



000
FTUS46 KSGX 282300
TAFSAN
TAF
KSAN 282320Z 2900/3006 22009KT P6SM FEW025 SCT035
     FM290200 VRB04KT P6SM SCT025
     FM291000 VRB03KT P6SM BKN025
     FM291600 VRB03KT P6SM SCT025 SCT035
     FM291900 29010KT P6SM SCT030
     FM300200 27004KT P6SM SCT020=



000
FTUS46 KSGX 282300
TAFPSP
TAF
KPSP 282320Z 2900/2924 33012G22KT P6SM SKC
     FM290600 33007KT P6SM SKC
     FM292000 33011KT P6SM SKC=



000
FTUS46 KSGX 282000 AAA
TAFSAN
TAF AMD
KSAN 282044Z 2821/2924 24011KT P6SM SCT035
     FM290200 VRB04KT P6SM SCT025
     FM291000 VRB03KT P6SM BKN025
     FM291600 VRB03KT P6SM SCT025 SCT035
     FM291900 29010KT P6SM SCT030=



000
FTUS46 KSGX 281700
TAFSNA
TAF
KSNA 281739Z 2818/2918 VRB04KT P6SM SCT030 BKN035
     FM281900 21010KT P6SM FEW035
     FM290200 VRB04KT P6SM SCT025
     FM291100 VRB03KT P6SM BKN025
     FM291700 VRB04KT P6SM SCT027=



000
FTUS46 KSGX 281700
TAFTRM
TAF
KTRM 281739Z 2818/2918 33012G22KT P6SM SKC
     FM291000 33010KT P6SM SKC=



000
FTUS46 KSGX 281700
TAFCRQ
TAF
KCRQ 281739Z 2818/2918 VRB05KT P6SM BKN035
     FM281900 24010KT P6SM SCT035
     FM290200 VRB04KT P6SM SCT025
     FM290900 VRB03KT P6SM BKN022
     FM291600 VRB04KT P6SM SCT025=



000
FTUS46 KSGX 281700
TAFSAN
TAF
KSAN 281739Z 2818/2924 17009KT P6SM SCT025 BKN035
     FM282000 26011KT P6SM SCT035
     FM290200 VRB04KT P6SM SCT025
     FM291000 VRB03KT P6SM BKN025
     FM291600 VRB03KT P6SM SCT025 SCT035
     FM291900 29010KT P6SM SCT030=



000
FTUS46 KSGX 281700
TAFONT
TAF
KONT 281739Z 2818/2924 VRB03KT P6SM SCT035
     FM282000 24011KT P6SM SCT035
     FM290400 VRB05KT P6SM SCT030
     FM290800 VRB04KT P6SM BKN020
     FM291500 VRB04KT P6SM SCT025
     FM292000 24011KT P6SM SCT030=



000
FTUS46 KSGX 281700
TAFPSP
TAF
KPSP 281739Z 2818/2918 33012G22KT P6SM SKC
     FM290600 33007KT P6SM SKC=



000
FTUS46 KSGX 281400 AAA
TAFSAN
TAF AMD
KSAN 281446Z 2815/2918 13006KT P6SM SCT025 BKN035
     FM281900 26011KT P6SM SCT035
     FM290200 VRB04KT P6SM SCT025
     FM291000 VRB03KT P6SM BKN025
     FM291600 VRB03KT P6SM SCT025 SCT035=



000
FTUS46 KSGX 281100
TAFSAN
TAF
KSAN 281120Z 2812/2918 VRB04KT P6SM SCT025 BKN035
     FM281900 26011KT P6SM SCT035
     FM290200 VRB04KT P6SM SCT025
     FM291000 VRB03KT P6SM BKN025
     FM291600 VRB03KT P6SM SCT025 SCT035=



000
FTUS46 KSGX 281100
TAFONT
TAF
KONT 281120Z 2812/2918 VRB03KT P6SM BKN035
     FM282000 24011KT P6SM SCT035
     FM290400 VRB05KT P6SM SCT035=



000
FTUS46 KSGX 281100
TAFSNA
TAF
KSNA 281120Z 2812/2912 VRB04KT P6SM SCT025 BKN035
     FM281900 21010KT P6SM FEW035
     FM290200 VRB04KT P6SM SCT025
     FM291100 VRB03KT P6SM BKN025=



000
FTUS46 KSGX 281100
TAFPSP
TAF
KPSP 281120Z 2812/2912 VRB05KT P6SM SKC
     FM282000 33012G22KT P6SM SKC
     FM290600 VRB05KT P6SM SKC=



000
FTUS46 KSGX 281100
TAFCRQ
TAF
KCRQ 281120Z 2812/2912 VRB05KT P6SM SCT022 BKN035
     FM281900 24010KT P6SM SCT035
     FM290200 VRB04KT P6SM SCT025
     FM290900 VRB03KT P6SM BKN022=



000
FTUS46 KSGX 281100
TAFTRM
TAF
KTRM 281120Z 2812/2912 VRB06KT P6SM SKC
     FM290000 33012G20KT P6SM SKC
     FM290800 33010KT P6SM SKC=



000
FTUS46 KSGX 281000 AAA
TAFTRM
TAF AMD
KTRM 281032Z 2811/2906 VRB06KT P6SM SKC
     FM282000 33013G23KT P6SM SKC
     FM290500 33010KT P6SM SKC=



000
FTUS46 KSGX 281000 AAB
TAFSAN
TAF AMD
KSAN 281001Z 2810/2912 VRB04KT P6SM SCT025 SCT035
      TEMPO 2812/2815 BKN030
     FM281900 26011KT P6SM SCT030
     FM290200 VRB04KT P6SM SCT025
     FM290900 VRB03KT P6SM BKN025=



000
FTUS46 KSGX 280900 AAA
TAFSNA
TAF AMD
KSNA 280959Z 2810/2906 VRB04KT P6SM SCT025 BKN035
     FM281900 21010KT P6SM FEW035
     FM290200 VRB04KT P6SM SCT025=



000
FTUS46 KSGX 280800 AAA
TAFPSP
TAF AMD
KPSP 280842Z 2809/2906 VRB06KT P6SM SKC
     FM281800 33013G23KT P6SM SKC
     FM290500 32010KT P6SM SKC=



000
FTUS46 KSGX 280800 AAA
TAFCRQ
TAF AMD
KCRQ 280834Z 2809/2906 VRB05KT P6SM SCT021 BKN035
     FM281000 VRB04KT P6SM BKN020
     FM281600 26006KT P6SM SCT022
     FM281900 28011KT P6SM SCT025
     FM290200 26004KT P6SM SCT023=



000
FTUS46 KSGX 280800 AAA
TAFSAN
TAF AMD
KSAN 280833Z 2809/2912 30004KT P6SM SCT025 SCT035
     FM281000 28004KT P6SM BKN025
     FM281600 27007KT P6SM SCT028
     FM281900 28011KT P6SM SCT030
     FM290200 26004KT P6SM SCT030
     FM290800 VRB04KT P6SM BKN025=



000
FTUS46 KSGX 280500
TAFSNA
TAF
KSNA 280520Z 2806/2906 00000KT P6SM SCT022
     FM281600 26006KT P6SM SCT028
     FM281900 26011KT P6SM SKC
     FM290200 24004KT P6SM SCT025=



000
FTUS46 KSGX 280500
TAFPSP
TAF
KPSP 280520Z 2806/2906 32012KT P6SM SKC
     FM281100 33007KT P6SM SKC
     FM281800 33013G23KT P6SM SKC
     FM290500 32010KT P6SM SKC=



000
FTUS46 KSGX 280500
TAFONT
TAF
KONT 280520Z 2806/2912 24006KT P6SM SCT080
     FM281100 26005KT P6SM BKN035
     FM281700 26006KT P6SM SCT035
     FM282000 24012G20KT P6SM SCT035
     FM290400 26007KT P6SM SCT030=



000
FTUS46 KSGX 280500
TAFSAN
TAF
KSAN 280520Z 2806/2912 30004KT P6SM SCT025
     FM280800 28004KT P6SM BKN025
     FM281600 27007KT P6SM SCT028
     FM281900 28011KT P6SM SCT030
     FM290200 26004KT P6SM SCT030
     FM290800 VRB04KT P6SM BKN025=



000
FTUS46 KSGX 280500
TAFTRM
TAF
KTRM 280520Z 2806/2906 33013KT P6SM SKC
     FM281300 33008KT P6SM SKC
     FM282000 33013G23KT P6SM SKC
     FM290500 33010KT P6SM SKC=



000
FTUS46 KSGX 280500
TAFCRQ
TAF
KCRQ 280520Z 2806/2906 00000KT P6SM BKN020
     FM281600 26006KT P6SM SCT022
     FM281900 28011KT P6SM SCT025
     FM290200 26004KT P6SM SCT023=



000
FTUS46 KSGX 280300 AAB
TAFSAN
TAF AMD
KSAN 280322Z 2803/2906 30006KT P6SM SCT028
     FM280700 28004KT P6SM BKN030
     FM281600 27007KT P6SM SCT030
     FM281900 28011KT P6SM SCT035
     FM290200 26004KT P6SM SCT030=



000
FTUS46 KSGX 280200 AAA
TAFSAN
TAF AMD
KSAN 280227Z 2802/2906 30006KT P6SM BKN029
     FM281600 27007KT P6SM SCT030
     FM281900 28011KT P6SM SCT035
     FM290200 26004KT P6SM SCT030=



000
FTUS46 KSGX 280200 AAA
TAFONT
TAF AMD
KONT 280225Z 2802/2906 25009KT P6SM SCT080
     FM280400 25007KT P6SM SCT045
     FM281100 26005KT P6SM BKN035
     FM281700 26006KT P6SM SCT040
     FM282000 24012G20KT P6SM FEW035
     FM290400 26007KT P6SM SKC=



000
FTUS46 KSGX 280000 AAA
TAFCRQ
TAF AMD
KCRQ 280022Z 2800/2824 25010KT P6SM BKN018
     FM280200 26006KT P6SM BKN020
     FM280700 26005KT P6SM BKN022
     FM281600 26006KT P6SM SCT030
     FM281900 28011KT P6SM SCT030=



000
FTUS46 KSGX 272300
TAFONT
TAF
KONT 272329Z 2800/2906 24013G20KT P6SM BKN060
     FM280400 25007KT P6SM SCT045
     FM281100 26005KT P6SM BKN035
     FM281700 26006KT P6SM SCT040
     FM282000 24012G20KT P6SM FEW035
     FM290400 26007KT P6SM SKC=



000
FTUS46 KSGX 272300
TAFPSP
TAF
KPSP 272329Z 2800/2824 08008KT P6SM SKC
     FM280200 32014G24KT P6SM SKC
     FM281100 33012KT P6SM SKC
     FM281800 33013G23KT P6SM SKC=



000
FTUS46 KSGX 272300
TAFTRM
TAF
KTRM 272329Z 2800/2824 31014G24KT P6SM SKC
     FM281300 33011KT P6SM SKC
     FM281900 33013G23KT P6SM SKC=



000
FTUS46 KSGX 272300
TAFCRQ
TAF
KCRQ 272329Z 2800/2824 27009G18KT P6SM SCT021
     FM280200 26006KT P6SM BKN025
     FM280700 26005KT P6SM BKN025
     FM281600 26006KT P6SM SCT030
     FM281900 28011KT P6SM SCT030=



000
FTUS46 KSGX 272300
TAFSNA
TAF
KSNA 272329Z 2800/2824 25008KT P6SM FEW028 SCT030
     FM280200 26006KT P6SM SCT030
     FM280600 VRB03KT P6SM BKN025
     FM281600 26006KT P6SM SCT030
     FM281900 26011KT P6SM SKC=



000
FTUS46 KSGX 272300
TAFSAN
TAF
KSAN 272329Z 2800/2906 28010G17KT P6SM SCT023
     FM280300 27006KT P6SM BKN025
     FM281600 27007KT P6SM SCT030
     FM281900 28011KT P6SM SCT035
     FM290200 26004KT P6SM SCT030=



000
FTUS46 KSGX 272000 AAA
TAFSAN
TAF AMD
KSAN 272037Z 2721/2824 27011KT P6SM SCT035
     FM280300 VRB05KT P6SM SCT030
     FM280700 VRB03KT P6SM BKN028
     FM281600 VRB04KT P6SM BKN035
     FM281900 28010KT P6SM SCT035=



000
FTUS46 KSGX 271800 CCA
TAFCRQ
TAF COR
KCRQ 271807Z 2718/2818 24009KT P6SM SCT030
     FM280200 VRB04KT P6SM SCT030
     FM280700 VRB03KT P6SM BKN025=



000
FTUS46 KSGX 271700
TAFTRM
TAF
KTRM 271738Z 2718/2818 32011G22KT 6SM HZ SKC
     FM281000 33011KT P6SM SKC=



000
FTUS46 KSGX 271700
TAFCRQ
TAF
KCRQ 271738Z 2718/2818 VRB04KT P6SM BKN028
     FM271900 24009KT P6SM SCT030
     FM280200 VRB04KT P6SM SCT030
     FM280700 VRB03KT P6SM BKN025=



000
FTUS46 KSGX 271700
TAFSNA
TAF
KSNA 271738Z 2718/2818 VRB05KT P6SM SCT035
     FM271900 22010KT P6SM FEW030
     FM280400 VRB04KT P6SM SCT030
     FM280900 VRB03KT P6SM BKN025=



000
FTUS46 KSGX 271700
TAFSAN
TAF
KSAN 271738Z 2718/2824 VRB04KT P6SM BKN035
     FM271900 27011KT P6SM SCT035
     FM280300 VRB05KT P6SM SCT030
     FM280700 VRB03KT P6SM BKN028
     FM281600 VRB04KT P6SM BKN035
     FM281900 28010KT P6SM SCT035=



000
FTUS46 KSGX 271700
TAFPSP
TAF
KPSP 271738Z 2718/2818 14006KT P6SM SKC
     FM271900 32013G24KT P6SM SKC
     FM280600 33008KT P6SM SKC=



000
FTUS46 KSGX 271700
TAFONT
TAF
KONT 271738Z 2718/2824 VRB04KT P6SM SCT035
     FM272000 24012G20KT P6SM FEW035
     FM280300 25007KT P6SM SCT035
     FM280900 VRB05KT P6SM BKN028
     FM281700 VRB05KT P6SM SCT030
     FM282000 24012G20KT P6SM FEW035=



000
FTUS46 KSGX 271500 AAA
TAFTRM
TAF AMD
KTRM 271527Z 2715/2812 32011G20KT 4SM HZ SKC
     FM281000 33011KT P6SM SKC=



000
FTUS46 KSGX 271500 AAA
TAFCRQ
TAF AMD
KCRQ 271506Z 2715/2812 VRB04KT P6SM SCT025
     FM271900 24009KT P6SM SCT025 SCT035
     FM280200 VRB04KT P6SM SCT030
     FM280700 VRB03KT P6SM BKN025=



000
FTUS46 KSGX 271400 AAA
TAFSAN
TAF AMD
KSAN 271430Z 2715/2818 VRB04KT P6SM SCT025 BKN035
     FM271900 27011KT P6SM SCT035
     FM280300 VRB05KT P6SM SCT030
     FM280700 VRB03KT P6SM BKN028=



    US Dept of Commerce
    National Oceanic and Atmospheric Administration
    National Weather Service
    1325 East West Highway
    Silver Spring, MD 20910
    Page Author: NWS Internet Services Team
Disclaimer
Information Quality
Credits
Glossary
Privacy Policy
Freedom of Information Act (FOIA)
About Us
Career Opportunities